Latest Weather Observations for Coldstream

IDV60901

Issued at 3:15 pm EDT Friday 21 November 2014 (issued every 10 minutes, with the page automatically refreshed every 10 minutes)

About weather observations | Map of Melbourne area stations | Latest observations for Melbourne area | Other Formats
Station Details ID: 086383 Name: COLDSTREAM Lat: -37.72 Lon: 145.41 Height: 83.0 m
Data from the previous 72 hours. | See also: Recent months at Coldstream
Date/Time
EDT
Tmp

°C
App
Tmp
°C
Dew
Point
°C
Rel
Hum
%
Delta-T

°C
Wind Press
QNH
hPa
Press
MSL
hPa
Rain
since
9 am
mm
Dir
 
Spd
km/h
Gust
km/h
Spd
kts
Gust
kts
21/03:00pm 22.0 20.9 10.8 49 6.2 WNW 7 15 4 8 1011.1 1011.0 0.0
21/02:30pm 21.5 19.6 10.6 50 6.0 WNW 11 19 6 10 1011.2 1011.1 0.0
21/02:00pm 20.6 18.3 8.9 47 6.2 WNW 11 22 6 12 1011.4 1011.3 0.0
21/01:30pm 21.1 19.5 11.7 55 5.3 SW 11 20 6 11 1011.5 1011.4 0.0
21/01:00pm 20.4 18.3 11.3 56 5.0 W 13 24 7 13 1011.4 1011.3 0.0
21/12:30pm 19.9 17.9 10.3 54 5.2 SSW 11 20 6 11 1011.4 1011.3 0.0
21/12:00pm 19.2 16.0 8.5 50 5.6 W 15 28 8 15 1011.7 1011.6 0.0
21/11:30am 19.1 16.8 11.7 62 4.1 WSW 15 20 8 11 1011.7 1011.6 0.0
21/11:00am 19.1 16.3 13.1 68 3.4 WSW 20 26 11 14 1011.3 1011.2 0.0
21/10:30am 18.1 15.8 13.0 72 2.9 WSW 17 24 9 13 1011.3 1011.2 0.0
21/10:00am 17.0 14.8 12.1 73 2.7 SW 15 24 8 13 1011.5 1011.4 0.0
21/09:30am 16.6 13.6 12.4 76 2.3 W 20 30 11 16 1011.2 1011.1 0.0
21/09:00am 16.3 13.3 12.5 78 2.1 W 20 30 11 16 1011.0 1010.9 2.8
21/08:30am 16.4 15.7 13.1 81 1.8 WNW 9 15 5 8 1010.6 1010.5 2.8
21/08:00am 16.1 16.0 13.4 84 1.5 NNW 6 9 3 5 1009.9 1009.8 2.8
21/07:30am 15.9 15.8 13.2 84 1.5 NW 6 11 3 6 1009.4 1009.3 2.8
21/07:00am 15.7 15.6 13.2 85 1.4 NW 6 9 3 5 1009.1 1009.0 2.8
21/06:30am 15.7 15.1 13.4 86 1.3 W 9 13 5 7 1008.9 1008.8 2.8
21/06:00am 15.8 14.4 13.5 86 1.3 W 13 19 7 10 1008.5 1008.4 2.8
21/05:30am 16.0 13.5 13.5 85 1.4 WSW 19 30 10 16 1007.9 1007.8 2.8
21/05:00am 16.2 13.6 13.3 83 1.6 WSW 19 30 10 16 1007.4 1007.3 2.8
21/04:30am 16.6 13.8 13.3 81 1.9 WSW 20 30 11 16 1006.6 1006.5 2.8
21/04:00am 17.2 14.2 14.8 86 1.4 SW 24 37 13 20 1006.2 1006.1 2.8
21/03:53am 17.0 13.6 15.7 92 0.8 SW 28 35 15 19 1005.9 1005.8 2.8
21/03:30am 16.5 18.0 15.7 95 0.5 WSW 2 13 1 7 1005.1 1005.0 2.8
21/03:00am 15.9 17.3 15.3 96 0.4 SSW 2 7 1 4 1005.4 1005.3 2.8
21/02:30am 15.4 16.1 14.6 95 0.5 S 4 9 2 5 1005.6 1005.5 2.8
21/02:00am 15.2 16.4 13.7 91 0.8 CALM 0 0 0 0 1005.5 1005.4 2.8
21/01:30am 17.2 17.4 14.3 83 1.7 NNW 6 7 3 4 1005.6 1005.5 2.8
21/01:00am 18.4 18.2 14.7 79 2.2 N 9 13 5 7 1005.7 1005.6 2.8
21/12:30am 18.4 18.0 15.3 82 1.8 N 11 15 6 8 1006.1 1006.0 2.8
21/12:00am 18.6 20.5 15.8 84 1.7 N 0 7 0 4 1006.5 1006.4 2.8
 
Date/Time
EDT
Tmp

°C
App
Tmp
°C
Dew
Point
°C
Rel
Hum
%
Delta-T

°C
Wind Press
QNH
hPa
Press
MSL
hPa
Rain
since
9 am
mm
Dir
 
Spd
km/h
Gust
km/h
Spd
kts
Gust
kts
20/11:30pm 18.9 19.3 15.4 80 2.1 N 7 13 4 7 1006.7 1006.6 2.8
20/11:00pm 19.0 19.7 15.5 80 2.1 N 6 13 3 7 1006.9 1006.8 2.8
20/10:30pm 19.7 17.9 15.4 76 2.5 N 19 30 10 16 1006.9 1006.8 2.8
20/10:00pm 18.1 19.3 16.8 92 0.8 NNE 6 11 3 6 1007.5 1007.4 2.8
20/09:30pm 18.2 20.0 17.4 95 0.5 ENE 4 7 2 4 1007.6 1007.5 2.6
20/09:00pm 18.6 19.9 17.6 94 0.6 ENE 7 11 4 6 1007.8 1007.7 1.8
20/08:30pm 18.7 21.3 17.5 93 0.7 CALM 0 0 0 0 1007.7 1007.6 1.4
20/08:00pm 19.0 20.7 17.1 89 1.2 SW 4 9 2 5 1007.4 1007.3 0.8
20/07:30pm 19.2 20.7 17.7 91 0.9 N 6 11 3 6 1007.8 1007.7 0.8
20/07:00pm 19.6 20.9 17.6 88 1.2 ENE 7 9 4 5 1007.6 1007.5 0.6
20/06:30pm 20.1 22.6 17.3 84 1.7 CALM 0 7 0 4 1007.7 1007.6 0.4
20/06:00pm 20.7 22.1 17.3 81 2.1 E 6 7 3 4 1007.6 1007.5 0.2
20/05:30pm 21.6 22.7 16.6 73 3.0 S 6 13 3 7 1007.6 1007.5 0.2
20/05:00pm 22.0 21.8 15.8 68 3.7 SW 11 19 6 10 1007.5 1007.4 0.0
20/04:30pm 22.9 20.8 15.2 62 4.6 WSW 20 33 11 18 1007.1 1007.0 0.0
20/04:00pm 24.4 23.1 14.8 55 5.8 SW 15 28 8 15 1006.6 1006.5 0.0
20/03:30pm 25.8 22.1 10.0 37 8.8 W 20 28 11 15 1005.7 1005.6 0.0
20/03:00pm 25.6 27.8 17.5 61 5.1 NW 2 7 1 4 1004.3 1004.2 0.0
20/02:30pm 25.4 26.3 13.9 49 6.8 NE 2 7 1 4 1004.5 1004.4 0.0
20/02:00pm 24.7 24.7 13.6 50 6.5 NNE 6 9 3 5 1004.9 1004.8 0.0
20/01:30pm 25.8 24.3 10.4 38 8.6 NNE 9 15 5 8 1005.4 1005.3 0.0
20/01:00pm 26.3 24.0 10.5 37 8.9 N 13 24 7 13 1005.9 1005.8 0.0
20/12:30pm 26.0 22.5 8.9 34 9.3 N 17 26 9 14 1006.3 1006.2 0.0
20/12:00pm 26.3 22.0 7.8 31 9.9 N 20 32 11 17 1006.6 1006.5 0.0
20/11:30am 26.6 20.7 7.6 30 10.2 N 28 39 15 21 1006.6 1006.5 0.0
20/11:01am 27.8 21.2 6.0 25 11.4 N 30 50 16 27 1006.8 1006.7 0.0
20/11:00am 28.0 22.1 7.3 27 11.1 N 28 43 15 23 1006.9 1006.8 0.0
20/10:30am 26.9 22.1 7.4 29 10.4 N 22 39 12 21 1007.4 1007.3 0.0
20/10:00am 26.0 20.9 6.1 28 10.4 N 22 35 12 19 1007.6 1007.5 0.0
20/09:30am 25.3 20.7 6.5 30 9.8 N 20 43 11 23 1008.0 1007.9 0.0
20/09:00am 25.0 20.6 7.2 32 9.4 N 20 30 11 16 1008.1 1008.0 0.0
20/08:30am 23.6 21.6 8.8 39 8.0 N 9 19 5 10 1008.3 1008.2 0.0
20/08:00am 23.1 20.6 8.4 39 7.8 N 11 17 6 9 1008.2 1008.1 0.0
20/07:53am 22.7 20.7 8.8 41 7.4 N 9 17 5 9 1008.2 1008.1 0.0
20/07:30am 17.5 18.9 14.4 82 1.8 CALM 0 0 0 0 1008.3 1008.2 0.0
20/07:00am 15.6 16.1 12.9 84 1.5 NE 2 7 1 4 1008.2 1008.1 0.0
20/06:30am 13.5 13.6 11.4 87 1.1 S 2 7 1 4 1008.2 1008.1 0.0
20/06:00am 13.3 13.3 11.2 87 1.1 SW 2 7 1 4 1008.0 1007.9 0.0
20/05:30am 13.7 14.3 11.9 89 1.0 CALM 0 0 0 0 1008.1 1008.0 0.0
20/05:00am 14.1 13.5 11.6 85 1.3 S 6 11 3 6 1008.2 1008.1 0.0
20/04:30am 13.9 14.1 11.8 87 1.1 S 2 7 1 4 1008.5 1008.4 0.0
20/04:00am 13.7 13.3 11.2 85 1.3 S 4 7 2 4 1008.6 1008.5 0.0
20/03:30am 13.6 13.7 11.5 87 1.1 SSE 2 9 1 5 1008.7 1008.6 0.0
20/03:00am 13.6 12.8 10.9 84 1.4 S 6 13 3 7 1009.0 1008.9 0.0
20/02:30am 12.7 13.0 10.8 88 1.0 CALM 0 0 0 0 1009.1 1009.0 0.0
20/02:00am 12.3 12.6 10.9 91 0.7 CALM 0 6 0 3 1009.6 1009.5 0.0
20/01:30am 11.2 11.2 9.8 91 0.7 CALM 0 0 0 0 1010.2 1010.1 0.0
20/01:00am 10.8 10.7 9.4 91 0.7 CALM 0 0 0 0 1011.0 1010.9 0.0
20/12:30am 10.6 10.4 9.2 91 0.7 CALM 0 6 0 3 1011.2 1011.1 0.0
20/12:00am 11.2 11.1 9.5 89 0.9 CALM 0 0 0 0 1011.6 1011.5 0.0
 
Date/Time
EDT
Tmp

°C
App
Tmp
°C
Dew
Point
°C
Rel
Hum
%
Delta-T

°C
Wind Press
QNH
hPa
Press
MSL
hPa
Rain
since
9 am
mm
Dir
 
Spd
km/h
Gust
km/h
Spd
kts
Gust
kts
19/11:30pm 12.0 12.1 10.2 89 0.9 CALM 0 0 0 0 1011.9 1011.8 0.0
19/11:00pm 12.5 12.7 10.6 88 1.0 CALM 0 0 0 0 1012.3 1012.2 0.0
19/10:30pm 13.4 12.6 11.1 86 1.2 SE 6 7 3 4 1012.2 1012.1 0.0
19/10:00pm 13.6 13.9 10.9 84 1.4 CALM 0 7 0 4 1012.3 1012.2 0.0
19/09:30pm 14.4 15.0 11.9 85 1.4 CALM 0 0 0 0 1012.3 1012.2 0.0
19/09:00pm 15.5 16.1 11.9 79 2.0 CALM 0 6 0 3 1012.1 1012.0 0.0
19/08:30pm 17.6 17.9 12.1 70 3.0 N 2 7 1 4 1012.1 1012.0 0.0
19/08:00pm 20.8 19.6 10.3 51 5.7 N 7 11 4 6 1012.3 1012.2 0.0
19/07:30pm 22.7 21.3 9.5 43 7.2 N 7 11 4 6 1012.3 1012.2 0.0
19/07:00pm 25.5 23.6 8.9 35 9.0 N 9 13 5 7 1012.1 1012.0 0.0
19/06:30pm 26.2 24.0 9.5 35 9.2 N 11 19 6 10 1012.4 1012.3 0.0
19/06:00pm 26.8 24.3 9.6 34 9.5 NNE 13 19 7 10 1012.3 1012.2 0.0
19/05:30pm 26.7 22.9 7.7 30 10.2 N 17 24 9 13 1012.6 1012.5 0.0
19/05:00pm 26.7 23.3 7.7 30 10.2 N 15 24 8 13 1013.1 1013.0 0.0
19/04:30pm 26.2 22.8 7.7 31 9.9 N 15 24 8 13 1013.4 1013.3 0.0
19/04:00pm 27.0 23.8 8.4 31 10.1 N 15 20 8 11 1013.6 1013.5 0.0
19/03:30pm 26.5 22.8 6.5 28 10.5 N 15 20 8 11 1014.2 1014.0 0.0
19/03:00pm 26.5 23.3 9.8 35 9.3 NNE 17 30 9 16 1014.6 1014.5 0.0
19/02:30pm 25.8 23.7 11.2 40 8.3 N 13 24 7 13 1015.0 1014.9 0.0
19/02:00pm 24.9 23.6 11.1 42 7.8 NW 9 15 5 8 1015.1 1015.0 0.0
19/01:30pm 24.3 23.6 11.9 45 7.1 SW 7 13 4 7 1016.2 1016.1 0.0
19/01:00pm 23.5 22.5 12.2 49 6.4 W 9 17 5 9 1016.9 1016.8 0.0
19/12:30pm 22.5 21.7 9.6 44 7.0 N 4 11 2 6 1017.1 1017.0 0.0
19/12:00pm 21.6 20.2 8.8 44 6.8 NNE 6 11 3 6 1017.7 1017.6 0.0
19/11:30am 20.3 19.9 12.5 61 4.4 ESE 6 11 3 6 1018.2 1018.1 0.0
19/11:00am 19.3 19.6 13.5 69 3.3 SE 4 7 2 4 1018.7 1018.6 0.0
19/10:30am 17.4 16.6 11.2 67 3.4 SE 6 9 3 5 1019.0 1018.9 0.0
19/10:00am 15.6 15.3 10.2 70 2.8 NNE 2 7 1 4 1019.5 1019.4 0.0
19/09:30am 14.6 14.1 10.6 77 2.1 NNW 4 9 2 5 1019.9 1019.8 0.0
19/09:00am 13.5 12.3 9.7 78 2.0 ESE 6 9 3 5 1020.1 1020.0 0.0
19/08:30am 11.3 9.4 9.2 87 1.1 SE 9 13 5 7 1020.1 1020.0 0.0
19/08:00am 10.6 9.1 10.4 99 0.1 ESE 9 15 5 8 1020.2 1020.1 0.0
19/07:30am 8.5 8.1 8.4 99 0.0 CALM 0 0 0 0 1020.2 1020.1 0.0
19/07:00am 6.0 5.1 5.9 99 0.0 CALM 0 0 0 0 1020.1 1020.0 0.0
19/06:30am 4.2 2.9 4.1 99 0.0 CALM 0 0 0 0 1020.2 1020.1 0.0
19/06:00am 3.7 2.3 3.6 99 0.0 CALM 0 0 0 0 1020.1 1020.0 0.0
19/05:30am 4.2 2.9 4.1 99 0.0 CALM 0 0 0 0 1020.1 1020.0 0.0
19/05:00am 4.9 3.4 4.8 99 0.0 N 2 6 1 3 1019.9 1019.8 0.0
19/04:30am 5.2 4.1 5.1 99 0.0 CALM 0 0 0 0 1020.2 1020.1 0.0
19/04:00am 5.6 4.6 5.5 99 0.0 CALM 0 0 0 0 1020.4 1020.3 0.0
19/03:30am 5.6 4.5 5.3 98 0.1 CALM 0 0 0 0 1020.8 1020.7 0.0
19/03:00am 5.4 4.3 5.0 97 0.2 CALM 0 0 0 0 1021.1 1021.0 0.0
19/02:30am 6.5 5.6 6.1 97 0.2 CALM 0 0 0 0 1021.2 1021.1 0.0
19/02:00am 6.8 5.9 6.2 96 0.3 CALM 0 0 0 0 1021.4 1021.3 0.0
19/01:30am 7.6 6.9 6.9 95 0.3 CALM 0 0 0 0 1021.7 1021.6 0.0
19/01:00am 8.5 7.9 7.4 93 0.5 CALM 0 0 0 0 1022.1 1022.0 0.0
19/12:30am 9.7 9.4 8.5 92 0.6 CALM 0 0 0 0 1022.2 1022.1 0.0
19/12:00am 11.5 10.3 9.6 88 1.0 S 6 9 3 5 1022.3 1022.2 0.0
 
Date/Time
EDT
Tmp

°C
App
Tmp
°C
Dew
Point
°C
Rel
Hum
%
Delta-T

°C
Wind Press
QNH
hPa
Press
MSL
hPa
Rain
since
9 am
mm
Dir
 
Spd
km/h
Gust
km/h
Spd
kts
Gust
kts
18/11:30pm 11.5 10.1 9.4 87 1.1 SSE 7 13 4 7 1022.3 1022.2 0.0
18/11:00pm 12.0 9.9 9.7 86 1.2 SSE 11 15 6 8 1022.4 1022.3 0.0
18/10:30pm 12.3 10.3 10.0 86 1.2 SSE 11 19 6 10 1022.5 1022.4 0.0
18/10:00pm 12.8 10.4 10.0 83 1.4 SSE 13 19 7 10 1022.3 1022.2 0.0
18/09:30pm 13.3 11.7 10.1 81 1.7 SSE 9 19 5 10 1022.0 1021.9 0.0
18/09:00pm 14.4 11.3 10.2 76 2.2 SSE 17 24 9 13 1021.6 1021.5 0.0
18/08:30pm 15.0 12.5 9.8 71 2.7 SSE 13 19 7 10 1021.3 1021.2 0.0
18/08:00pm 16.0 13.6 8.7 62 3.7 SSE 11 19 6 10 1020.9 1020.8 0.0
18/07:30pm 18.1 16.3 8.1 52 5.1 SSW 7 9 4 5 1020.5 1020.4 0.0
18/07:00pm 18.8 16.8 8.7 52 5.3 S 9 17 5 9 1020.2 1020.1 0.0
18/06:30pm 19.2 17.2 8.5 50 5.6 S 9 13 5 7 1019.8 1019.7 0.0
18/06:00pm 19.4 17.2 7.8 47 6.0 S 9 17 5 9 1019.8 1019.7 0.0
18/05:30pm 19.7 17.2 8.4 48 5.9 SSW 11 17 6 9 1019.9 1019.8 0.0
18/05:00pm 19.7 17.5 9.3 51 5.5 SW 11 19 6 10 1019.8 1019.7 0.0
18/04:30pm 19.6 17.4 9.2 51 5.5 SSW 11 20 6 11 1019.8 1019.7 0.0
18/04:00pm 19.1 16.4 7.5 47 5.9 SSW 11 19 6 10 1019.9 1019.8 0.0
18/03:30pm 19.0 16.7 7.4 47 5.9 S 9 20 5 11 1020.1 1020.0 0.0

Latest Capital City Observations: Canberra | Sydney | Melbourne | Brisbane | Adelaide | Perth | Hobart | Darwin

Other Formats:

Comma delimited format used in spreadsheet applications
http://www.bom.gov.au/fwo/IDV60901/IDV60901.94864.axf

JavaScript Object Notation format (JSON) in row-major order
http://www.bom.gov.au/fwo/IDV60901/IDV60901.94864.json